sensor_id;sensor_type;location;lat;lon;timestamp;temperature;humidity
57088;DHT22;42965;52.846;6.614;2022-12-18T00:01:21;-3.30;99.90
57088;DHT22;42965;52.846;6.614;2022-12-18T00:03:48;-3.20;99.90
57088;DHT22;42965;52.846;6.614;2022-12-18T00:06:15;-3.20;99.90
57088;DHT22;42965;52.846;6.614;2022-12-18T00:08:44;-3.20;99.90
57088;DHT22;42965;52.846;6.614;2022-12-18T00:11:14;-3.20;99.90
57088;DHT22;42965;52.846;6.614;2022-12-18T00:13:41;-3.20;99.90
57088;DHT22;42965;52.846;6.614;2022-12-18T00:16:12;-3.20;99.90
57088;DHT22;42965;52.846;6.614;2022-12-18T00:18:39;-3.30;99.90
57088;DHT22;42965;52.846;6.614;2022-12-18T00:21:08;-3.30;99.90
57088;DHT22;42965;52.846;6.614;2022-12-18T00:23:37;-3.30;99.90
57088;DHT22;42965;52.846;6.614;2022-12-18T00:26:06;-3.30;99.90
57088;DHT22;42965;52.846;6.614;2022-12-18T00:28:34;-3.40;99.90
57088;DHT22;42965;52.846;6.614;2022-12-18T00:31:05;-3.40;99.90
57088;DHT22;42965;52.846;6.614;2022-12-18T00:33:33;-3.30;99.90
57088;DHT22;42965;52.846;6.614;2022-12-18T00:36:03;-3.40;99.90
57088;DHT22;42965;52.846;6.614;2022-12-18T00:38:32;-3.40;99.90
57088;DHT22;42965;52.846;6.614;2022-12-18T00:40:58;-3.40;99.90
57088;DHT22;42965;52.846;6.614;2022-12-18T00:43:24;-3.40;99.90
57088;DHT22;42965;52.846;6.614;2022-12-18T00:45:52;-3.30;99.90
57088;DHT22;42965;52.846;6.614;2022-12-18T00:48:18;-3.40;99.90
57088;DHT22;42965;52.846;6.614;2022-12-18T00:50:44;-3.30;99.90
57088;DHT22;42965;52.846;6.614;2022-12-18T00:53:11;-3.30;99.90
57088;DHT22;42965;52.846;6.614;2022-12-18T00:55:39;-3.30;99.90
57088;DHT22;42965;52.846;6.614;2022-12-18T00:58:06;-3.30;99.90
57088;DHT22;42965;52.846;6.614;2022-12-18T01:00:34;-3.30;99.90
57088;DHT22;42965;52.846;6.614;2022-12-18T01:03:00;-3.40;99.90
57088;DHT22;42965;52.846;6.614;2022-12-18T01:05:26;-3.40;99.90
57088;DHT22;42965;52.846;6.614;2022-12-18T01:07:53;-3.40;99.90
57088;DHT22;42965;52.846;6.614;2022-12-18T01:10:23;-3.40;99.90
57088;DHT22;42965;52.846;6.614;2022-12-18T01:12:50;-3.40;99.90
57088;DHT22;42965;52.846;6.614;2022-12-18T01:15:18;-3.40;99.90
57088;DHT22;42965;52.846;6.614;2022-12-18T01:17:59;-3.30;99.90
57088;DHT22;42965;52.846;6.614;2022-12-18T01:20:26;-3.30;99.90
57088;DHT22;42965;52.846;6.614;2022-12-18T01:22:53;-3.30;99.90
57088;DHT22;42965;52.846;6.614;2022-12-18T01:25:20;-3.30;99.90
57088;DHT22;42965;52.846;6.614;2022-12-18T01:27:46;-3.40;99.90
57088;DHT22;42965;52.846;6.614;2022-12-18T01:30:13;-3.40;99.90
57088;DHT22;42965;52.846;6.614;2022-12-18T01:32:39;-3.50;99.90
57088;DHT22;42965;52.846;6.614;2022-12-18T01:35:07;-3.60;99.90
57088;DHT22;42965;52.846;6.614;2022-12-18T01:37:33;-3.60;99.90
57088;DHT22;42965;52.846;6.614;2022-12-18T01:40:00;-3.80;99.90
57088;DHT22;42965;52.846;6.614;2022-12-18T01:42:26;-3.80;99.90
57088;DHT22;42965;52.846;6.614;2022-12-18T01:44:56;-3.90;99.90
57088;DHT22;42965;52.846;6.614;2022-12-18T01:50:32;-4.00;99.90
57088;DHT22;42965;52.846;6.614;2022-12-18T01:53:13;-4.10;99.90
57088;DHT22;42965;52.846;6.614;2022-12-18T01:55:44;-4.10;99.90
57088;DHT22;42965;52.846;6.614;2022-12-18T01:58:11;-4.20;99.90
57088;DHT22;42965;52.846;6.614;2022-12-18T02:00:38;-4.30;99.90
57088;DHT22;42965;52.846;6.614;2022-12-18T02:03:05;-4.30;99.90
57088;DHT22;42965;52.846;6.614;2022-12-18T02:05:47;-4.30;99.90
57088;DHT22;42965;52.846;6.614;2022-12-18T02:08:30;-4.40;99.90
57088;DHT22;42965;52.846;6.614;2022-12-18T02:14:00;-4.40;99.90
57088;DHT22;42965;52.846;6.614;2022-12-18T02:16:44;-4.50;99.90
57088;DHT22;42965;52.846;6.614;2022-12-18T02:19:40;-4.50;99.90
57088;DHT22;42965;52.846;6.614;2022-12-18T02:27:50;-4.70;99.90
57088;DHT22;42965;52.846;6.614;2022-12-18T02:30:20;-4.70;99.90
57088;DHT22;42965;52.846;6.614;2022-12-18T02:32:52;-4.70;99.90
57088;DHT22;42965;52.846;6.614;2022-12-18T02:35:21;-4.80;99.90
57088;DHT22;42965;52.846;6.614;2022-12-18T02:37:53;-4.80;99.90
57088;DHT22;42965;52.846;6.614;2022-12-18T02:40:22;-4.80;99.90
57088;DHT22;42965;52.846;6.614;2022-12-18T02:42:50;-4.80;99.90
57088;DHT22;42965;52.846;6.614;2022-12-18T02:45:18;-4.80;99.90
57088;DHT22;42965;52.846;6.614;2022-12-18T02:47:48;-4.90;99.90
57088;DHT22;42965;52.846;6.614;2022-12-18T02:53:04;-4.90;99.90
57088;DHT22;42965;52.846;6.614;2022-12-18T02:56:01;-4.90;99.90
57088;DHT22;42965;52.846;6.614;2022-12-18T03:04:00;-5.00;99.90
57088;DHT22;42965;52.846;6.614;2022-12-18T03:06:35;-5.00;99.90
57088;DHT22;42965;52.846;6.614;2022-12-18T03:09:10;-5.00;99.90
57088;DHT22;42965;52.846;6.614;2022-12-18T03:11:42;-5.00;99.90
57088;DHT22;42965;52.846;6.614;2022-12-18T03:14:32;-5.10;99.90
57088;DHT22;42965;52.846;6.614;2022-12-18T03:17:05;-5.10;99.90
57088;DHT22;42965;52.846;6.614;2022-12-18T03:19:33;-5.00;99.90
57088;DHT22;42965;52.846;6.614;2022-12-18T03:22:03;-5.00;99.90
57088;DHT22;42965;52.846;6.614;2022-12-18T03:24:40;-5.10;99.90
57088;DHT22;42965;52.846;6.614;2022-12-18T03:27:11;-5.10;99.90
57088;DHT22;42965;52.846;6.614;2022-12-18T03:29:44;-5.10;99.90
57088;DHT22;42965;52.846;6.614;2022-12-18T03:32:30;-5.10;99.90
57088;DHT22;42965;52.846;6.614;2022-12-18T03:35:02;-5.20;99.90
57088;DHT22;42965;52.846;6.614;2022-12-18T03:37:32;-5.20;99.90
57088;DHT22;42965;52.846;6.614;2022-12-18T03:39:59;-5.20;99.90
57088;DHT22;42965;52.846;6.614;2022-12-18T03:45:13;-5.20;99.90
57088;DHT22;42965;52.846;6.614;2022-12-18T03:50:39;-5.20;99.90
57088;DHT22;42965;52.846;6.614;2022-12-18T03:55:52;-5.30;99.90
57088;DHT22;42965;52.846;6.614;2022-12-18T03:58:23;-5.30;99.90
57088;DHT22;42965;52.846;6.614;2022-12-18T04:01:03;-5.20;99.90
57088;DHT22;42965;52.846;6.614;2022-12-18T04:03:35;-5.30;99.90
57088;DHT22;42965;52.846;6.614;2022-12-18T04:06:03;-5.30;99.90
57088;DHT22;42965;52.846;6.614;2022-12-18T04:08:32;-5.30;99.90
57088;DHT22;42965;52.846;6.614;2022-12-18T04:11:10;-5.30;99.90
57088;DHT22;42965;52.846;6.614;2022-12-18T04:13:38;-5.40;99.90
57088;DHT22;42965;52.846;6.614;2022-12-18T04:16:09;-5.40;99.90
57088;DHT22;42965;52.846;6.614;2022-12-18T04:18:43;-5.40;99.90
57088;DHT22;42965;52.846;6.614;2022-12-18T04:21:14;-5.40;99.90
57088;DHT22;42965;52.846;6.614;2022-12-18T04:23:41;-5.40;99.90
57088;DHT22;42965;52.846;6.614;2022-12-18T04:26:07;-5.50;99.90
57088;DHT22;42965;52.846;6.614;2022-12-18T04:28:45;-5.50;99.90
57088;DHT22;42965;52.846;6.614;2022-12-18T04:31:12;-5.50;99.90
57088;DHT22;42965;52.846;6.614;2022-12-18T04:33:39;-5.50;99.90
57088;DHT22;42965;52.846;6.614;2022-12-18T04:36:06;-5.60;99.90
57088;DHT22;42965;52.846;6.614;2022-12-18T04:38:37;-5.50;99.90
57088;DHT22;42965;52.846;6.614;2022-12-18T04:41:08;-5.50;99.90
57088;DHT22;42965;52.846;6.614;2022-12-18T04:43:35;-5.50;99.90
57088;DHT22;42965;52.846;6.614;2022-12-18T04:46:10;-5.60;99.90
57088;DHT22;42965;52.846;6.614;2022-12-18T04:48:36;-5.60;99.90
57088;DHT22;42965;52.846;6.614;2022-12-18T04:51:04;-5.60;99.90
57088;DHT22;42965;52.846;6.614;2022-12-18T04:53:35;-5.60;99.90
57088;DHT22;42965;52.846;6.614;2022-12-18T04:56:10;-5.60;99.90
57088;DHT22;42965;52.846;6.614;2022-12-18T04:58:37;-5.60;99.90
57088;DHT22;42965;52.846;6.614;2022-12-18T05:01:05;-5.60;99.90
57088;DHT22;42965;52.846;6.614;2022-12-18T05:03:32;-5.60;99.90
57088;DHT22;42965;52.846;6.614;2022-12-18T05:05:58;-5.60;99.90
57088;DHT22;42965;52.846;6.614;2022-12-18T05:08:24;-5.60;99.90
57088;DHT22;42965;52.846;6.614;2022-12-18T05:10:59;-5.70;99.90
57088;DHT22;42965;52.846;6.614;2022-12-18T05:13:31;-5.70;99.90
57088;DHT22;42965;52.846;6.614;2022-12-18T05:15:57;-5.70;99.90
57088;DHT22;42965;52.846;6.614;2022-12-18T05:18:24;-5.70;99.90
57088;DHT22;42965;52.846;6.614;2022-12-18T05:20:51;-5.70;99.90
57088;DHT22;42965;52.846;6.614;2022-12-18T05:23:19;-5.70;99.90
57088;DHT22;42965;52.846;6.614;2022-12-18T05:28:24;-5.80;99.90
57088;DHT22;42965;52.846;6.614;2022-12-18T05:30:52;-5.80;99.90
57088;DHT22;42965;52.846;6.614;2022-12-18T05:33:20;-5.70;99.90
57088;DHT22;42965;52.846;6.614;2022-12-18T05:35:58;-5.80;99.90
57088;DHT22;42965;52.846;6.614;2022-12-18T05:38:26;-5.80;99.90
57088;DHT22;42965;52.846;6.614;2022-12-18T05:40:59;-5.90;99.90
57088;DHT22;42965;52.846;6.614;2022-12-18T05:43:26;-5.90;99.90
57088;DHT22;42965;52.846;6.614;2022-12-18T05:45:53;-5.90;99.90
57088;DHT22;42965;52.846;6.614;2022-12-18T05:48:21;-6.00;99.90
57088;DHT22;42965;52.846;6.614;2022-12-18T05:50:49;-6.00;99.90
57088;DHT22;42965;52.846;6.614;2022-12-18T05:53:18;-6.00;99.90
57088;DHT22;42965;52.846;6.614;2022-12-18T05:55:45;-6.10;99.90
57088;DHT22;42965;52.846;6.614;2022-12-18T05:58:13;-6.10;99.90
57088;DHT22;42965;52.846;6.614;2022-12-18T06:00:43;-6.20;99.90
57088;DHT22;42965;52.846;6.614;2022-12-18T06:03:12;-6.20;99.90
57088;DHT22;42965;52.846;6.614;2022-12-18T06:05:41;-6.20;99.90
57088;DHT22;42965;52.846;6.614;2022-12-18T06:08:08;-6.20;99.90
57088;DHT22;42965;52.846;6.614;2022-12-18T06:10:34;-6.20;99.90
57088;DHT22;42965;52.846;6.614;2022-12-18T06:13:01;-6.20;99.90
57088;DHT22;42965;52.846;6.614;2022-12-18T06:15:27;-6.20;99.90
57088;DHT22;42965;52.846;6.614;2022-12-18T06:17:53;-6.20;99.90
57088;DHT22;42965;52.846;6.614;2022-12-18T06:20:20;-6.20;99.90
57088;DHT22;42965;52.846;6.614;2022-12-18T06:22:46;-6.30;99.90
57088;DHT22;42965;52.846;6.614;2022-12-18T06:25:13;-6.30;99.90
57088;DHT22;42965;52.846;6.614;2022-12-18T06:27:39;-6.30;99.90
57088;DHT22;42965;52.846;6.614;2022-12-18T06:30:06;-6.30;99.90
57088;DHT22;42965;52.846;6.614;2022-12-18T06:32:39;-6.30;99.90
57088;DHT22;42965;52.846;6.614;2022-12-18T06:35:06;-6.20;99.90
57088;DHT22;42965;52.846;6.614;2022-12-18T06:37:32;-6.30;99.90
57088;DHT22;42965;52.846;6.614;2022-12-18T06:39:59;-6.30;99.90
57088;DHT22;42965;52.846;6.614;2022-12-18T06:42:28;-6.30;99.90
57088;DHT22;42965;52.846;6.614;2022-12-18T06:45:04;-6.30;99.90
57088;DHT22;42965;52.846;6.614;2022-12-18T06:47:30;-6.30;99.90
57088;DHT22;42965;52.846;6.614;2022-12-18T06:49:57;-6.30;99.90
57088;DHT22;42965;52.846;6.614;2022-12-18T06:52:23;-6.30;99.90
57088;DHT22;42965;52.846;6.614;2022-12-18T06:54:50;-6.30;99.90
57088;DHT22;42965;52.846;6.614;2022-12-18T06:57:16;-6.30;99.90
57088;DHT22;42965;52.846;6.614;2022-12-18T06:59:44;-6.40;99.90
57088;DHT22;42965;52.846;6.614;2022-12-18T07:02:12;-6.40;99.90
57088;DHT22;42965;52.846;6.614;2022-12-18T07:04:40;-6.40;99.90
57088;DHT22;42965;52.846;6.614;2022-12-18T07:07:06;-6.40;99.90
57088;DHT22;42965;52.846;6.614;2022-12-18T07:09:32;-6.40;99.90
57088;DHT22;42965;52.846;6.614;2022-12-18T07:11:58;-6.40;99.90
57088;DHT22;42965;52.846;6.614;2022-12-18T07:14:25;-6.40;99.90
57088;DHT22;42965;52.846;6.614;2022-12-18T07:16:51;-6.50;99.90
57088;DHT22;42965;52.846;6.614;2022-12-18T07:19:17;-6.50;99.90
57088;DHT22;42965;52.846;6.614;2022-12-18T07:21:43;-6.50;99.90
57088;DHT22;42965;52.846;6.614;2022-12-18T07:24:11;-6.50;99.90
57088;DHT22;42965;52.846;6.614;2022-12-18T07:26:38;-6.50;99.90
57088;DHT22;42965;52.846;6.614;2022-12-18T07:29:04;-6.50;99.90
57088;DHT22;42965;52.846;6.614;2022-12-18T07:31:30;-6.50;99.90
57088;DHT22;42965;52.846;6.614;2022-12-18T07:33:56;-6.60;99.90
57088;DHT22;42965;52.846;6.614;2022-12-18T07:36:23;-6.50;99.90
57088;DHT22;42965;52.846;6.614;2022-12-18T07:38:50;-6.50;99.90
57088;DHT22;42965;52.846;6.614;2022-12-18T07:41:17;-6.50;99.90
57088;DHT22;42965;52.846;6.614;2022-12-18T07:43:45;-6.50;99.90
57088;DHT22;42965;52.846;6.614;2022-12-18T07:46:13;-6.50;99.90
57088;DHT22;42965;52.846;6.614;2022-12-18T07:48:44;-6.50;99.90
57088;DHT22;42965;52.846;6.614;2022-12-18T07:51:15;-6.50;99.90
57088;DHT22;42965;52.846;6.614;2022-12-18T07:53:41;-6.40;99.90
57088;DHT22;42965;52.846;6.614;2022-12-18T07:56:10;-6.40;99.90
57088;DHT22;42965;52.846;6.614;2022-12-18T07:58:37;-6.40;99.90
57088;DHT22;42965;52.846;6.614;2022-12-18T08:01:08;-6.40;99.90
57088;DHT22;42965;52.846;6.614;2022-12-18T08:03:35;-6.30;99.90
57088;DHT22;42965;52.846;6.614;2022-12-18T08:06:03;-6.30;99.90
57088;DHT22;42965;52.846;6.614;2022-12-18T08:08:31;-6.20;99.90
57088;DHT22;42965;52.846;6.614;2022-12-18T08:10:57;-6.20;99.90
57088;DHT22;42965;52.846;6.614;2022-12-18T08:13:24;-6.10;99.90
57088;DHT22;42965;52.846;6.614;2022-12-18T08:16:04;-5.90;99.90
57088;DHT22;42965;52.846;6.614;2022-12-18T08:18:36;-5.80;99.90
57088;DHT22;42965;52.846;6.614;2022-12-18T08:23:40;-5.60;99.90
57088;DHT22;42965;52.846;6.614;2022-12-18T08:26:06;-5.50;99.90
57088;DHT22;42965;52.846;6.614;2022-12-18T08:28:34;-5.30;99.90
57088;DHT22;42965;52.846;6.614;2022-12-18T08:31:00;-5.20;99.90
57088;DHT22;42965;52.846;6.614;2022-12-18T08:33:27;-5.10;99.90
57088;DHT22;42965;52.846;6.614;2022-12-18T08:35:54;-5.10;99.90
57088;DHT22;42965;52.846;6.614;2022-12-18T08:38:20;-5.00;99.90
57088;DHT22;42965;52.846;6.614;2022-12-18T08:40:47;-4.90;99.90
57088;DHT22;42965;52.846;6.614;2022-12-18T08:43:13;-4.90;99.90
57088;DHT22;42965;52.846;6.614;2022-12-18T08:45:58;-4.80;99.90
57088;DHT22;42965;52.846;6.614;2022-12-18T08:48:25;-4.70;99.90
57088;DHT22;42965;52.846;6.614;2022-12-18T08:50:56;-4.60;99.90
57088;DHT22;42965;52.846;6.614;2022-12-18T08:53:22;-4.60;99.90
57088;DHT22;42965;52.846;6.614;2022-12-18T08:55:48;-4.50;99.90
57088;DHT22;42965;52.846;6.614;2022-12-18T08:58:16;-4.40;99.90
57088;DHT22;42965;52.846;6.614;2022-12-18T09:00:42;-4.30;99.90
57088;DHT22;42965;52.846;6.614;2022-12-18T09:03:17;-4.20;99.90
57088;DHT22;42965;52.846;6.614;2022-12-18T09:05:45;-4.00;99.90
57088;DHT22;42965;52.846;6.614;2022-12-18T09:08:12;-3.70;99.90
57088;DHT22;42965;52.846;6.614;2022-12-18T09:10:45;-3.40;99.90
57088;DHT22;42965;52.846;6.614;2022-12-18T09:13:17;-3.20;99.90
57088;DHT22;42965;52.846;6.614;2022-12-18T09:15:49;-3.20;99.90
57088;DHT22;42965;52.846;6.614;2022-12-18T09:18:18;-3.10;99.90
57088;DHT22;42965;52.846;6.614;2022-12-18T09:20:45;-3.10;99.90
57088;DHT22;42965;52.846;6.614;2022-12-18T09:23:12;-3.10;99.90
57088;DHT22;42965;52.846;6.614;2022-12-18T09:25:39;-3.00;99.90
57088;DHT22;42965;52.846;6.614;2022-12-18T09:28:11;-3.00;99.90
57088;DHT22;42965;52.846;6.614;2022-12-18T09:30:39;-2.80;99.90
57088;DHT22;42965;52.846;6.614;2022-12-18T09:33:05;-2.70;99.90
57088;DHT22;42965;52.846;6.614;2022-12-18T09:35:32;-2.50;99.90
57088;DHT22;42965;52.846;6.614;2022-12-18T09:37:58;-2.40;99.90
57088;DHT22;42965;52.846;6.614;2022-12-18T09:40:26;-2.40;99.90
57088;DHT22;42965;52.846;6.614;2022-12-18T09:42:59;-2.40;99.90
57088;DHT22;42965;52.846;6.614;2022-12-18T09:45:27;-2.40;99.90
57088;DHT22;42965;52.846;6.614;2022-12-18T09:47:55;-2.40;99.90
57088;DHT22;42965;52.846;6.614;2022-12-18T09:50:32;-2.30;99.90
57088;DHT22;42965;52.846;6.614;2022-12-18T09:53:04;-2.20;99.90
57088;DHT22;42965;52.846;6.614;2022-12-18T09:55:37;-2.10;99.90
57088;DHT22;42965;52.846;6.614;2022-12-18T09:58:13;-2.00;99.90
57088;DHT22;42965;52.846;6.614;2022-12-18T10:00:41;-1.90;99.90
57088;DHT22;42965;52.846;6.614;2022-12-18T10:03:13;-1.80;99.90
57088;DHT22;42965;52.846;6.614;2022-12-18T10:10:56;-1.40;99.90
57088;DHT22;42965;52.846;6.614;2022-12-18T10:13:33;-1.30;99.90
57088;DHT22;42965;52.846;6.614;2022-12-18T10:16:18;-1.30;99.90
57088;DHT22;42965;52.846;6.614;2022-12-18T10:22:08;-1.20;99.90
57088;DHT22;42965;52.846;6.614;2022-12-18T10:24:46;-1.20;99.90
57088;DHT22;42965;52.846;6.614;2022-12-18T10:27:17;-1.40;99.90
57088;DHT22;42965;52.846;6.614;2022-12-18T10:29:44;-1.40;99.90
57088;DHT22;42965;52.846;6.614;2022-12-18T10:32:20;-1.50;99.90
57088;DHT22;42965;52.846;6.614;2022-12-18T10:34:48;-1.50;99.90
57088;DHT22;42965;52.846;6.614;2022-12-18T10:37:22;-1.60;99.90
57088;DHT22;42965;52.846;6.614;2022-12-18T10:40:18;-1.60;99.90
57088;DHT22;42965;52.846;6.614;2022-12-18T10:43:14;-1.60;99.90
57088;DHT22;42965;52.846;6.614;2022-12-18T10:45:41;-1.50;99.90
57088;DHT22;42965;52.846;6.614;2022-12-18T10:48:19;-1.50;99.90
57088;DHT22;42965;52.846;6.614;2022-12-18T10:50:49;-1.50;99.90
57088;DHT22;42965;52.846;6.614;2022-12-18T10:53:22;-1.50;99.90
57088;DHT22;42965;52.846;6.614;2022-12-18T10:55:49;-1.50;99.90
57088;DHT22;42965;52.846;6.614;2022-12-18T10:58:35;-1.50;99.90
57088;DHT22;42965;52.846;6.614;2022-12-18T11:01:13;-1.60;99.90
57088;DHT22;42965;52.846;6.614;2022-12-18T11:03:43;-1.60;99.90
57088;DHT22;42965;52.846;6.614;2022-12-18T11:06:18;-1.60;99.90
57088;DHT22;42965;52.846;6.614;2022-12-18T11:09:03;-1.60;99.90
57088;DHT22;42965;52.846;6.614;2022-12-18T11:11:31;-1.60;99.90
57088;DHT22;42965;52.846;6.614;2022-12-18T11:14:13;-1.60;99.90
57088;DHT22;42965;52.846;6.614;2022-12-18T11:16:46;-1.50;99.90
57088;DHT22;42965;52.846;6.614;2022-12-18T11:19:27;-1.50;99.90
57088;DHT22;42965;52.846;6.614;2022-12-18T11:21:54;-1.50;99.90
57088;DHT22;42965;52.846;6.614;2022-12-18T11:24:35;-1.40;99.90
57088;DHT22;42965;52.846;6.614;2022-12-18T11:27:17;-1.40;99.90
57088;DHT22;42965;52.846;6.614;2022-12-18T11:29:44;-1.30;99.90
57088;DHT22;42965;52.846;6.614;2022-12-18T11:32:38;-1.20;99.90
57088;DHT22;42965;52.846;6.614;2022-12-18T11:38:02;-1.20;99.90
57088;DHT22;42965;52.846;6.614;2022-12-18T11:40:36;-1.10;99.90
57088;DHT22;42965;52.846;6.614;2022-12-18T11:43:17;-1.10;99.90
57088;DHT22;42965;52.846;6.614;2022-12-18T11:45:54;-1.10;99.90
57088;DHT22;42965;52.846;6.614;2022-12-18T11:48:50;-1.10;99.90
57088;DHT22;42965;52.846;6.614;2022-12-18T11:51:27;-1.00;99.90
57088;DHT22;42965;52.846;6.614;2022-12-18T11:53:55;-1.00;99.90
57088;DHT22;42965;52.846;6.614;2022-12-18T11:56:36;-0.90;99.90
57088;DHT22;42965;52.846;6.614;2022-12-18T12:02:18;-0.90;99.90
57088;DHT22;42965;52.846;6.614;2022-12-18T12:10:24;-0.90;99.90
57088;DHT22;42965;52.846;6.614;2022-12-18T12:26:56;-0.80;99.90
57088;DHT22;42965;52.846;6.614;2022-12-18T12:29:39;-0.80;99.90
57088;DHT22;42965;52.846;6.614;2022-12-18T12:35:29;-0.80;99.90
57088;DHT22;42965;52.846;6.614;2022-12-18T12:38:28;-0.80;99.90
57088;DHT22;42965;52.846;6.614;2022-12-18T12:41:02;-0.70;99.90
57088;DHT22;42965;52.846;6.614;2022-12-18T12:43:40;-0.70;99.90
57088;DHT22;42965;52.846;6.614;2022-12-18T12:46:13;-0.70;99.90
57088;DHT22;42965;52.846;6.614;2022-12-18T12:48:47;-0.60;99.90
57088;DHT22;42965;52.846;6.614;2022-12-18T12:51:21;-0.60;99.90
57088;DHT22;42965;52.846;6.614;2022-12-18T12:53:48;-0.50;99.90
57088;DHT22;42965;52.846;6.614;2022-12-18T12:56:17;-0.50;99.90
57088;DHT22;42965;52.846;6.614;2022-12-18T13:04:34;-0.40;99.90
57088;DHT22;42965;52.846;6.614;2022-12-18T13:15:42;-0.30;99.90
57088;DHT22;42965;52.846;6.614;2022-12-18T13:18:22;-0.30;99.90
57088;DHT22;42965;52.846;6.614;2022-12-18T13:25:54;-0.30;99.90
57088;DHT22;42965;52.846;6.614;2022-12-18T13:28:49;-0.30;99.90
57088;DHT22;42965;52.846;6.614;2022-12-18T13:34:23;-0.40;99.90
57088;DHT22;42965;52.846;6.614;2022-12-18T13:36:53;-0.40;99.90
57088;DHT22;42965;52.846;6.614;2022-12-18T13:39:31;-0.40;99.90
57088;DHT22;42965;52.846;6.614;2022-12-18T13:44:36;-0.40;99.90
57088;DHT22;42965;52.846;6.614;2022-12-18T13:47:04;-0.40;99.90
57088;DHT22;42965;52.846;6.614;2022-12-18T13:49:41;-0.40;99.90
57088;DHT22;42965;52.846;6.614;2022-12-18T13:52:18;-0.40;99.90
57088;DHT22;42965;52.846;6.614;2022-12-18T13:54:58;-0.40;99.90
57088;DHT22;42965;52.846;6.614;2022-12-18T13:57:32;-0.40;99.90
57088;DHT22;42965;52.846;6.614;2022-12-18T14:02:48;-0.40;99.90
57088;DHT22;42965;52.846;6.614;2022-12-18T14:05:34;-0.40;99.90
57088;DHT22;42965;52.846;6.614;2022-12-18T14:08:05;-0.50;99.90
57088;DHT22;42965;52.846;6.614;2022-12-18T14:10:35;-0.50;99.90
57088;DHT22;42965;52.846;6.614;2022-12-18T14:13:10;-0.50;99.90
57088;DHT22;42965;52.846;6.614;2022-12-18T14:15:41;-0.60;99.90
57088;DHT22;42965;52.846;6.614;2022-12-18T14:20:58;-0.70;99.90
57088;DHT22;42965;52.846;6.614;2022-12-18T14:23:34;-0.70;99.90
57088;DHT22;42965;52.846;6.614;2022-12-18T14:26:17;-0.70;99.90
57088;DHT22;42965;52.846;6.614;2022-12-18T14:28:46;-0.70;99.90
57088;DHT22;42965;52.846;6.614;2022-12-18T14:31:24;-0.70;99.90
57088;DHT22;42965;52.846;6.614;2022-12-18T14:33:52;-0.70;99.90
57088;DHT22;42965;52.846;6.614;2022-12-18T14:36:21;-0.70;99.90
57088;DHT22;42965;52.846;6.614;2022-12-18T14:38:51;-0.80;99.90
57088;DHT22;42965;52.846;6.614;2022-12-18T14:41:18;-0.80;99.90
57088;DHT22;42965;52.846;6.614;2022-12-18T14:43:49;-0.80;99.90
57088;DHT22;42965;52.846;6.614;2022-12-18T14:46:37;-0.80;99.90
57088;DHT22;42965;52.846;6.614;2022-12-18T14:49:25;-0.80;99.90
57088;DHT22;42965;52.846;6.614;2022-12-18T14:52:03;-0.80;99.90
57088;DHT22;42965;52.846;6.614;2022-12-18T14:54:31;-0.90;99.90
57088;DHT22;42965;52.846;6.614;2022-12-18T14:57:01;-0.90;99.90
57088;DHT22;42965;52.846;6.614;2022-12-18T14:59:29;-0.90;99.90
57088;DHT22;42965;52.846;6.614;2022-12-18T15:04:41;-0.90;99.90
57088;DHT22;42965;52.846;6.614;2022-12-18T15:07:23;-0.90;99.90
57088;DHT22;42965;52.846;6.614;2022-12-18T15:12:35;-1.00;99.90
57088;DHT22;42965;52.846;6.614;2022-12-18T15:15:03;-1.00;99.90
57088;DHT22;42965;52.846;6.614;2022-12-18T15:17:30;-1.10;99.90
57088;DHT22;42965;52.846;6.614;2022-12-18T15:20:09;-1.10;99.90
57088;DHT22;42965;52.846;6.614;2022-12-18T15:22:37;-1.10;99.90
57088;DHT22;42965;52.846;6.614;2022-12-18T15:25:38;-1.10;99.90
57088;DHT22;42965;52.846;6.614;2022-12-18T15:28:26;-1.10;99.90
57088;DHT22;42965;52.846;6.614;2022-12-18T15:34:12;-1.10;99.90
57088;DHT22;42965;52.846;6.614;2022-12-18T15:36:31;-1.20;99.90
57088;DHT22;42965;52.846;6.614;2022-12-18T15:38:58;-1.20;99.90
57088;DHT22;42965;52.846;6.614;2022-12-18T15:41:24;-1.10;99.90
57088;DHT22;42965;52.846;6.614;2022-12-18T15:43:53;-1.10;99.90
57088;DHT22;42965;52.846;6.614;2022-12-18T15:46:24;-1.10;99.90
57088;DHT22;42965;52.846;6.614;2022-12-18T15:48:52;-1.20;99.90
57088;DHT22;42965;52.846;6.614;2022-12-18T15:53:48;-1.20;99.90
57088;DHT22;42965;52.846;6.614;2022-12-18T15:56:16;-1.20;99.90
57088;DHT22;42965;52.846;6.614;2022-12-18T15:59:02;-1.20;99.90
57088;DHT22;42965;52.846;6.614;2022-12-18T16:01:30;-1.20;99.90
57088;DHT22;42965;52.846;6.614;2022-12-18T16:03:57;-1.20;99.90
57088;DHT22;42965;52.846;6.614;2022-12-18T16:06:23;-1.20;99.90
57088;DHT22;42965;52.846;6.614;2022-12-18T16:08:50;-1.10;99.90
57088;DHT22;42965;52.846;6.614;2022-12-18T16:11:27;-1.20;99.90
57088;DHT22;42965;52.846;6.614;2022-12-18T16:14:16;-1.10;99.90
57088;DHT22;42965;52.846;6.614;2022-12-18T16:16:58;-1.20;99.90
57088;DHT22;42965;52.846;6.614;2022-12-18T16:19:27;-1.20;99.90
57088;DHT22;42965;52.846;6.614;2022-12-18T16:21:55;-1.20;99.90
57088;DHT22;42965;52.846;6.614;2022-12-18T16:24:23;-1.20;99.90
57088;DHT22;42965;52.846;6.614;2022-12-18T16:26:51;-1.20;99.90
57088;DHT22;42965;52.846;6.614;2022-12-18T16:29:19;-1.20;99.90
57088;DHT22;42965;52.846;6.614;2022-12-18T16:31:46;-1.10;99.90
57088;DHT22;42965;52.846;6.614;2022-12-18T16:34:15;-1.20;99.90
57088;DHT22;42965;52.846;6.614;2022-12-18T16:36:44;-1.10;99.90
57088;DHT22;42965;52.846;6.614;2022-12-18T16:39:10;-1.10;99.90
57088;DHT22;42965;52.846;6.614;2022-12-18T16:41:37;-1.10;99.90
57088;DHT22;42965;52.846;6.614;2022-12-18T16:44:03;-1.10;99.90
57088;DHT22;42965;52.846;6.614;2022-12-18T16:46:30;-1.00;99.90
57088;DHT22;42965;52.846;6.614;2022-12-18T16:48:58;-1.00;99.90
57088;DHT22;42965;52.846;6.614;2022-12-18T16:51:28;-1.00;99.90
57088;DHT22;42965;52.846;6.614;2022-12-18T16:53:56;-0.90;99.90
57088;DHT22;42965;52.846;6.614;2022-12-18T16:56:23;-0.90;99.90
57088;DHT22;42965;52.846;6.614;2022-12-18T16:58:54;-0.90;99.90
57088;DHT22;42965;52.846;6.614;2022-12-18T17:01:22;-0.90;99.90
57088;DHT22;42965;52.846;6.614;2022-12-18T17:03:57;-0.80;99.90
57088;DHT22;42965;52.846;6.614;2022-12-18T17:06:25;-0.80;99.90
57088;DHT22;42965;52.846;6.614;2022-12-18T17:08:59;-0.80;99.90
57088;DHT22;42965;52.846;6.614;2022-12-18T17:11:28;-0.80;99.90
57088;DHT22;42965;52.846;6.614;2022-12-18T17:13:54;-0.80;99.90
57088;DHT22;42965;52.846;6.614;2022-12-18T17:16:21;-0.80;99.90
57088;DHT22;42965;52.846;6.614;2022-12-18T17:18:48;-0.80;99.90
57088;DHT22;42965;52.846;6.614;2022-12-18T17:21:15;-0.70;99.90
57088;DHT22;42965;52.846;6.614;2022-12-18T17:23:42;-0.70;99.90
57088;DHT22;42965;52.846;6.614;2022-12-18T17:26:11;-0.70;99.90
57088;DHT22;42965;52.846;6.614;2022-12-18T17:28:38;-0.70;99.90
57088;DHT22;42965;52.846;6.614;2022-12-18T17:31:13;-0.70;99.90
57088;DHT22;42965;52.846;6.614;2022-12-18T17:33:40;-0.70;99.90
57088;DHT22;42965;52.846;6.614;2022-12-18T17:36:07;-0.70;99.90
57088;DHT22;42965;52.846;6.614;2022-12-18T17:38:34;-0.80;99.90
57088;DHT22;42965;52.846;6.614;2022-12-18T17:41:04;-0.80;99.90
57088;DHT22;42965;52.846;6.614;2022-12-18T17:43:32;-0.70;99.90
57088;DHT22;42965;52.846;6.614;2022-12-18T17:46:03;-0.70;99.90